Time;durP1;ratioP1;P1;durP2;ratioP2;P2;SDS_P1;SDS_P2;PMS_P1;PMS_P2;Temp;Humidity;BMP_temperature;BMP_pressure;BME280_temperature;BME280_humidity;BME280_pressure;Samples;Min_cycle;Max_cycle;Signal;HPM_P1;HPM_P2
2021/10/09 00:02:05;;;;;;;32.88;22.30;;;12.80;91.50;;;;;;5073239;28;20047;-75
2021/10/09 00:04:30;;;;;;;29.60;20.80;;;12.80;91.60;;;;;;5055536;28;20021;-75
2021/10/09 00:06:56;;;;;;;29.95;20.55;;;12.80;91.60;;;;;;5073493;28;20081;-75
2021/10/09 00:09:22;;;;;;;32.08;23.25;;;12.70;91.60;;;;;;5073487;28;20027;-76
2021/10/09 00:11:47;;;;;;;25.92;18.25;;;12.70;91.60;;;;;;5073256;28;20035;-74
2021/10/09 00:14:14;;;;;;;19.42;13.88;;;12.70;91.70;;;;;;5073548;28;20377;-75
2021/10/09 00:16:45;;;;;;;30.48;20.70;;;12.70;91.80;;;;;;5072840;28;20103;-75
2021/10/09 00:19:12;;;;;;;25.90;18.88;;;12.70;91.80;;;;;;5073286;28;20024;-75
2021/10/09 00:21:43;;;;;;;26.15;20.40;;;12.70;91.80;;;;;;5073242;28;20271;-75
2021/10/09 00:24:10;;;;;;;21.17;15.00;;;12.70;91.80;;;;;;5055249;28;20417;-74
2021/10/09 00:26:36;;;;;;;27.02;19.85;;;12.70;91.90;;;;;;5055002;28;20103;-74
2021/10/09 00:29:02;;;;;;;26.05;18.27;;;12.70;91.90;;;;;;5073145;28;20029;-74
2021/10/09 00:31:27;;;;;;;28.55;21.30;;;12.70;91.90;;;;;;5055039;28;20020;-73
2021/10/09 00:33:53;;;;;;;33.30;25.60;;;12.70;92.00;;;;;;5072794;28;20032;-74
2021/10/09 00:36:19;;;;;;;28.95;21.52;;;12.70;91.90;;;;;;5072886;28;20358;-74
2021/10/09 00:38:44;;;;;;;30.30;23.08;;;12.60;91.90;;;;;;5073026;28;20024;-75
2021/10/09 00:41:10;;;;;;;38.00;26.52;;;12.60;91.90;;;;;;5055601;28;20028;-74
2021/10/09 00:43:35;;;;;;;35.60;23.67;;;12.60;91.90;;;;;;5055088;28;20461;-75
2021/10/09 00:46:03;;;;;;;28.08;21.15;;;12.60;91.90;;;;;;5073298;28;20024;-75
2021/10/09 00:48:31;;;;;;;33.03;22.65;;;12.60;91.90;;;;;;5055024;28;20025;-74
2021/10/09 00:50:57;;;;;;;38.90;30.13;;;12.60;92.00;;;;;;5076787;28;20550;-75
2021/10/09 00:53:24;;;;;;;35.10;24.83;;;12.50;91.90;;;;;;5060406;28;20033;-75
2021/10/09 00:55:52;;;;;;;29.67;19.17;;;12.50;92.00;;;;;;5074092;28;20495;-75
2021/10/09 00:58:21;;;;;;;32.75;24.50;;;12.50;92.00;;;;;;5083520;28;20025;-74
2021/10/09 01:00:47;;;;;;;36.95;25.02;;;12.50;92.00;;;;;;5069105;28;20048;-74
2021/10/09 01:03:13;;;;;;;39.78;29.52;;;12.40;92.10;;;;;;5080188;28;20044;-75
2021/10/09 01:05:39;;;;;;;33.22;24.55;;;12.50;92.10;;;;;;5058080;28;20024;-74
2021/10/09 01:08:05;;;;;;;38.45;27.25;;;12.40;92.10;;;;;;5072748;28;20029;-74
2021/10/09 01:10:31;;;;;;;34.00;24.42;;;12.40;92.20;;;;;;5054606;28;20024;-75
2021/10/09 01:12:58;;;;;;;41.40;25.27;;;12.40;92.20;;;;;;5072234;28;20025;-75
2021/10/09 01:15:29;;;;;;;29.00;19.80;;;12.40;92.30;;;;;;5058595;28;20119;-75
2021/10/09 01:17:55;;;;;;;38.83;27.80;;;12.30;92.30;;;;;;5058347;28;20024;-75
2021/10/09 01:20:21;;;;;;;44.47;30.80;;;12.30;92.30;;;;;;5076581;28;20044;-75
2021/10/09 01:22:47;;;;;;;46.25;32.95;;;12.30;92.40;;;;;;5058317;28;20107;-74
2021/10/09 01:25:14;;;;;;;43.88;29.95;;;12.20;92.40;;;;;;5058744;28;20115;-74
2021/10/09 01:27:40;;;;;;;39.75;27.85;;;12.20;92.70;;;;;;5076399;28;20094;-74
2021/10/09 01:30:08;;;;;;;44.28;33.55;;;12.20;92.50;;;;;;5076418;28;20021;-75
2021/10/09 01:32:35;;;;;;;42.08;29.23;;;12.10;92.80;;;;;;5075939;28;20025;-74
2021/10/09 01:35:07;;;;;;;45.53;31.63;;;12.10;92.70;;;;;;5084072;28;20021;-75
2021/10/09 01:37:43;;;;;;;39.55;28.00;;;12.10;92.70;;;;;;5072730;28;20021;-74
2021/10/09 01:40:09;;;;;;;39.47;28.90;;;12.10;92.80;;;;;;5077497;28;20106;-74
2021/10/09 01:42:36;;;;;;;43.22;30.38;;;12.00;92.80;;;;;;5076000;28;20029;-75
2021/10/09 01:45:04;;;;;;;40.15;27.38;;;12.00;92.80;;;;;;5076597;28;20025;-75
2021/10/09 01:47:30;;;;;;;43.60;29.50;;;12.00;92.90;;;;;;5058345;28;20017;-75
2021/10/09 01:49:56;;;;;;;43.00;31.77;;;12.00;92.90;;;;;;5076199;28;20024;-75
2021/10/09 01:52:21;;;;;;;39.13;28.40;;;11.90;92.90;;;;;;5076334;28;20417;-75
2021/10/09 01:54:48;;;;;;;31.80;24.90;;;11.90;92.90;;;;;;5063076;28;20033;-74
2021/10/09 01:57:13;;;;;;;42.42;29.35;;;11.90;92.90;;;;;;5087915;28;20048;-73
2021/10/09 01:59:39;;;;;;;51.30;35.28;;;11.90;93.00;;;;;;5090876;28;20530;-75
2021/10/09 02:02:04;;;;;;;42.58;29.35;;;11.80;93.00;;;;;;5078996;28;20032;-74
2021/10/09 02:04:30;;;;;;;47.28;32.00;;;11.80;93.00;;;;;;5075623;28;20024;-75
2021/10/09 02:06:56;;;;;;;42.92;29.67;;;11.70;93.00;;;;;;5075252;28;20025;-74
2021/10/09 02:09:21;;;;;;;45.03;33.78;;;11.70;93.00;;;;;;5057708;28;20031;-74
2021/10/09 02:11:49;;;;;;;44.83;31.13;;;11.70;93.10;;;;;;5074993;28;20035;-73
2021/10/09 02:25:56;;;;;;;47.55;33.50;;;11.60;93.30;;;;;;5074364;28;20119;-75
2021/10/09 02:27:58;;;;;;;49.30;33.75;;;11.50;93.30;;;;;;5060640;28;20490;-75
2021/10/09 02:30:24;;;;;;;54.53;37.00;;;11.50;93.30;;;;;;5057551;28;20025;-74
2021/10/09 02:32:49;;;;;;;45.03;30.67;;;11.50;93.40;;;;;;5057545;28;20027;-74
2021/10/09 02:35:15;;;;;;;50.70;35.42;;;11.50;93.40;;;;;;5075613;28;20021;-75
2021/10/09 02:37:41;;;;;;;46.38;30.77;;;11.40;93.40;;;;;;5057184;28;20455;-75
2021/10/09 02:40:07;;;;;;;47.40;33.33;;;11.40;93.40;;;;;;5075319;28;20385;-75
2021/10/09 02:42:33;;;;;;;53.33;36.83;;;11.40;93.50;;;;;;5075071;28;20067;-75
2021/10/09 02:44:58;;;;;;;49.22;35.83;;;11.40;93.50;;;;;;5056660;28;20366;-74
2021/10/09 02:47:24;;;;;;;54.97;37.50;;;11.40;93.50;;;;;;5074525;28;20031;-74
2021/10/09 02:49:49;;;;;;;52.38;35.22;;;11.30;93.50;;;;;;5074389;28;20028;-74
2021/10/09 02:52:15;;;;;;;53.15;36.80;;;11.30;93.50;;;;;;5074651;28;20028;-74
2021/10/09 02:54:41;;;;;;;53.25;36.13;;;11.30;93.50;;;;;;5074284;28;20416;-75
2021/10/09 02:57:06;;;;;;;61.03;41.78;;;11.30;93.50;;;;;;5074975;28;20373;-75
2021/10/09 02:59:32;;;;;;;55.60;38.05;;;11.30;93.60;;;;;;5056592;28;20071;-74
2021/10/09 03:01:57;;;;;;;52.13;36.95;;;11.30;93.60;;;;;;5074137;28;20457;-74
2021/10/09 03:04:23;;;;;;;59.10;36.08;;;11.30;93.60;;;;;;5074674;28;20086;-75
2021/10/09 03:06:49;;;;;;;48.28;32.67;;;11.20;93.60;;;;;;5056248;28;20078;-74
2021/10/09 03:09:14;;;;;;;50.67;34.78;;;11.20;93.60;;;;;;5074739;28;20035;-74
2021/10/09 03:11:40;;;;;;;53.33;36.90;;;11.20;93.60;;;;;;5074108;28;20480;-76
2021/10/09 03:14:06;;;;;;;43.58;30.20;;;11.20;93.50;;;;;;5056371;28;20476;-73
2021/10/09 03:16:31;;;;;;;60.03;40.50;;;11.20;93.50;;;;;;5074261;28;20036;-74
2021/10/09 03:18:57;;;;;;;58.30;39.25;;;11.20;93.50;;;;;;5056073;28;20021;-75
2021/10/09 03:21:23;;;;;;;52.95;36.10;;;11.20;93.60;;;;;;5055914;28;20021;-74
2021/10/09 03:23:48;;;;;;;50.72;35.05;;;11.10;93.50;;;;;;5074323;28;20024;-75
2021/10/09 03:26:14;;;;;;;55.17;39.28;;;11.10;93.50;;;;;;5074137;28;20036;-75
2021/10/09 03:28:39;;;;;;;53.25;38.35;;;11.10;93.50;;;;;;5056321;28;20048;-75
2021/10/09 03:31:05;;;;;;;54.33;36.72;;;11.10;93.50;;;;;;5057638;28;20052;-75
2021/10/09 03:33:30;;;;;;;53.13;36.22;;;11.10;93.50;;;;;;5079713;28;20020;-76
2021/10/09 03:35:56;;;;;;;62.25;41.08;;;11.00;93.40;;;;;;5058875;28;20036;-75
2021/10/09 03:38:22;;;;;;;58.78;39.22;;;11.00;93.40;;;;;;5082893;28;20091;-74
2021/10/09 03:40:52;;;;;;;55.40;38.05;;;11.00;93.40;;;;;;5081867;28;20021;-76
2021/10/09 03:43:21;;;;;;;;;;;11.00;93.50;;;;;;5059751;28;20128;-75
2021/10/09 03:48:53;;;;;;;57.55;38.97;;;11.00;93.50;;;;;;5043489;28;20385;-74
2021/10/09 03:54:03;;;;;;;53.08;36.97;;;10.90;93.60;;;;;;5074716;28;20032;-74
2021/10/09 03:56:28;;;;;;;58.03;39.88;;;10.90;93.60;;;;;;5073421;28;20024;-74
2021/10/09 03:58:54;;;;;;;53.80;37.38;;;10.80;93.60;;;;;;5073299;28;20030;-74
2021/10/09 04:01:20;;;;;;;55.05;38.55;;;10.80;93.60;;;;;;5073184;28;20425;-75
2021/10/09 04:03:45;;;;;;;58.47;39.97;;;10.90;93.60;;;;;;5073355;28;20041;-75
2021/10/09 04:06:11;;;;;;;56.40;37.67;;;10.80;93.60;;;;;;5055158;28;20439;-75
2021/10/09 04:08:36;;;;;;;62.60;39.72;;;10.80;93.70;;;;;;5073213;28;20053;-75
2021/10/09 04:11:03;;;;;;;55.55;36.83;;;10.70;93.60;;;;;;5072729;28;20078;-75
2021/10/09 04:13:28;;;;;;;58.00;39.35;;;10.70;93.60;;;;;;5073120;28;20029;-75
2021/10/09 04:15:54;;;;;;;59.38;39.92;;;10.70;93.60;;;;;;5072585;28;20029;-75
2021/10/09 04:18:19;;;;;;;60.97;39.83;;;10.70;93.60;;;;;;5073033;28;20024;-75
2021/10/09 04:20:45;;;;;;;57.72;39.55;;;10.60;93.50;;;;;;5072671;28;20060;-75
2021/10/09 04:23:10;;;;;;;59.70;41.20;;;10.60;93.50;;;;;;5054896;28;20024;-75
2021/10/09 04:25:36;;;;;;;55.28;36.13;;;10.60;93.50;;;;;;5073081;28;20029;-75
2021/10/09 04:28:02;;;;;;;61.42;41.55;;;10.60;93.50;;;;;;5072653;28;20032;-75
2021/10/09 04:30:28;;;;;;;58.90;37.92;;;10.60;93.60;;;;;;5072511;28;20021;-75
2021/10/09 04:32:53;;;;;;;58.80;39.10;;;10.50;93.50;;;;;;5072588;28;20070;-75
2021/10/09 04:35:19;;;;;;;62.05;40.22;;;10.50;93.80;;;;;;5055410;28;20052;-75
2021/10/09 04:37:45;;;;;;;64.80;40.65;;;10.50;93.70;;;;;;5054534;28;20024;-75
2021/10/09 04:40:11;;;;;;;59.35;39.55;;;10.50;93.60;;;;;;5073197;28;20035;-75
2021/10/09 04:42:37;;;;;;;58.30;38.33;;;10.50;93.70;;;;;;5072611;28;20021;-75
2021/10/09 04:45:03;;;;;;;57.55;38.22;;;10.40;93.60;;;;;;5072729;28;20020;-75
2021/10/09 04:47:29;;;;;;;58.92;40.63;;;10.40;93.70;;;;;;5072364;28;20025;-74
2021/10/09 04:49:54;;;;;;;60.20;38.72;;;10.50;93.70;;;;;;5072412;28;20449;-74
2021/10/09 04:52:20;;;;;;;63.33;41.67;;;10.40;93.70;;;;;;5054691;28;20074;-74
2021/10/09 04:54:45;;;;;;;59.83;38.17;;;10.40;93.70;;;;;;5072349;28;20052;-73
2021/10/09 04:57:11;;;;;;;63.15;40.80;;;10.30;93.70;;;;;;5072546;28;20033;-74
2021/10/09 04:59:39;;;;;;;57.17;37.53;;;10.40;93.80;;;;;;5054424;28;20437;-74
2021/10/09 05:02:05;;;;;;;53.67;37.75;;;10.30;93.80;;;;;;5054135;28;20032;-73
2021/10/09 05:04:30;;;;;;;60.42;41.17;;;10.30;93.80;;;;;;5072890;28;20330;-75
2021/10/09 05:06:56;;;;;;;56.92;37.20;;;10.30;93.80;;;;;;5054613;28;20028;-74
2021/10/09 05:09:21;;;;;;;68.05;41.28;;;10.30;93.90;;;;;;5072185;28;20111;-73
2021/10/09 05:11:47;;;;;;;59.78;40.15;;;10.30;93.90;;;;;;5054195;28;20017;-74
2021/10/09 05:14:15;;;;;;;66.32;41.60;;;10.30;93.90;;;;;;5072302;28;20025;-75
2021/10/09 05:16:41;;;;;;;68.50;42.20;;;10.20;93.90;;;;;;5054382;28;20020;-75
2021/10/09 05:19:06;;;;;;;59.60;38.67;;;10.20;93.90;;;;;;5054099;28;20449;-74
2021/10/09 05:21:32;;;;;;;56.92;37.08;;;10.20;93.90;;;;;;5054607;28;20021;-74
2021/10/09 05:23:58;;;;;;;66.75;42.22;;;10.20;93.90;;;;;;5072462;28;20029;-75
2021/10/09 05:26:23;;;;;;;57.08;34.78;;;10.20;93.90;;;;;;5054321;28;20119;-75
2021/10/09 05:28:49;;;;;;;58.10;35.92;;;10.20;94.00;;;;;;5054753;28;20016;-73
2021/10/09 05:31:29;;;;;;;57.10;36.97;;;10.10;94.00;;;;;;5054639;28;20025;-74
2021/10/09 05:33:55;;;;;;;59.70;38.15;;;10.10;94.00;;;;;;5072941;28;20025;-75
2021/10/09 05:36:22;;;;;;;66.88;41.80;;;10.10;94.10;;;;;;5077893;28;20030;-73
2021/10/09 05:38:48;;;;;;;66.57;41.35;;;10.10;94.10;;;;;;5065579;28;20021;-73
2021/10/09 05:41:14;;;;;;;63.72;41.03;;;10.10;94.10;;;;;;5065585;28;20066;-75
2021/10/09 05:43:39;;;;;;;65.25;41.13;;;10.10;94.10;;;;;;5059538;28;20024;-74
2021/10/09 05:46:05;;;;;;;67.38;43.67;;;10.10;94.20;;;;;;5079630;28;20485;-74
2021/10/09 05:48:35;;;;;;;63.85;41.75;;;10.10;94.20;;;;;;5071862;28;20032;-74
2021/10/09 05:51:08;;;;;;;62.55;39.05;;;10.00;94.20;;;;;;5071884;28;20111;-73
2021/10/09 06:45:56;;;;;;;37.35;27.30;;;12.10;91.30;;;;;;5072509;28;20055;-74
2021/10/09 06:59:28;;;;;;;43.45;31.00;;;12.60;89.50;;;;;;5073986;28;20097;-75
2021/10/09 07:01:44;;;;;;;52.70;32.88;;;12.80;88.70;;;;;;5074198;28;20506;-74
2021/10/09 07:04:09;;;;;;;43.45;31.90;;;12.80;87.90;;;;;;5074098;28;20027;-75
2021/10/09 07:06:35;;;;;;;41.85;30.77;;;12.90;88.10;;;;;;5056284;28;20025;-74
2021/10/09 07:09:00;;;;;;;44.65;31.13;;;13.00;87.40;;;;;;5074131;28;20071;-75
2021/10/09 07:11:26;;;;;;;50.40;31.45;;;13.10;87.10;;;;;;5073988;28;20486;-74
2021/10/09 07:13:52;;;;;;;42.15;29.95;;;13.10;87.60;;;;;;5074272;28;20046;-74
2021/10/09 07:16:17;;;;;;;43.08;29.40;;;13.10;87.10;;;;;;5073969;28;20439;-75
2021/10/09 07:18:43;;;;;;;39.28;27.48;;;13.20;87.20;;;;;;5056148;28;20021;-74
2021/10/09 07:21:08;;;;;;;39.15;29.42;;;13.30;86.80;;;;;;5073825;28;20016;-74
2021/10/09 07:23:34;;;;;;;36.72;27.95;;;13.30;86.00;;;;;;5056783;28;20028;-73
2021/10/09 07:25:59;;;;;;;38.42;28.85;;;13.30;85.00;;;;;;5076568;28;20020;-73
2021/10/09 07:28:25;;;;;;;42.10;29.88;;;13.30;86.30;;;;;;5065391;28;20021;-73
2021/10/09 07:30:51;;;;;;;31.33;25.13;;;13.30;85.70;;;;;;5087892;28;20088;-73
2021/10/09 07:33:16;;;;;;;28.08;18.25;;;13.30;86.20;;;;;;5059000;28;20475;-75
2021/10/09 07:35:42;;;;;;;30.23;21.55;;;13.30;87.60;;;;;;5056872;28;20031;-74
2021/10/09 07:38:07;;;;;;;29.30;21.90;;;13.40;88.40;;;;;;5055593;28;20056;-75
2021/10/09 07:40:33;;;;;;;30.10;21.10;;;13.40;87.20;;;;;;5055779;28;20023;-75
2021/10/09 07:42:59;;;;;;;28.55;20.60;;;13.40;86.80;;;;;;5055482;28;20030;-75
2021/10/09 07:45:24;;;;;;;36.92;25.05;;;13.40;89.30;;;;;;5055940;28;20025;-75
2021/10/09 07:47:50;;;;;;;37.22;28.58;;;13.50;86.40;;;;;;5074062;28;20033;-75
2021/10/09 07:50:16;;;;;;;36.90;27.80;;;13.60;84.90;;;;;;5063407;28;20021;-75
2021/10/09 07:52:41;;;;;;;38.63;28.55;;;13.70;83.40;;;;;;5075149;28;20025;-75
2021/10/09 07:55:08;;;;;;;34.83;24.50;;;13.70;82.20;;;;;;5055322;28;20028;-75
2021/10/09 07:57:34;;;;;;;40.38;27.33;;;13.60;82.80;;;;;;5055422;28;20090;-76
2021/10/09 08:00:00;;;;;;;34.30;26.38;;;13.60;82.90;;;;;;5073153;28;20469;-76
2021/10/09 08:02:26;;;;;;;39.03;28.20;;;13.60;83.00;;;;;;5072755;28;20043;-75
2021/10/09 08:04:51;;;;;;;37.13;27.30;;;13.60;81.40;;;;;;5051325;28;20301;-75
2021/10/09 08:07:17;;;;;;;33.03;24.60;;;13.60;81.60;;;;;;5072201;28;20074;-75
2021/10/09 08:09:44;;;;;;;35.75;27.65;;;13.60;80.80;;;;;;5072327;28;20052;-75
2021/10/09 08:12:09;;;;;;;37.17;26.92;;;13.60;80.80;;;;;;5054824;28;20039;-76
2021/10/09 08:14:35;;;;;;;40.72;26.73;;;13.70;80.80;;;;;;5054859;28;20480;-76
2021/10/09 08:17:01;;;;;;;37.33;28.40;;;13.90;80.20;;;;;;5072772;28;20085;-75
2021/10/09 08:19:26;;;;;;;40.50;28.17;;;13.90;79.40;;;;;;5072999;28;20103;-76
2021/10/09 08:21:53;;;;;;;29.17;22.20;;;13.90;78.70;;;;;;5072362;28;20465;-76
2021/10/09 08:40:07;;;;;;;38.72;27.70;;;14.70;76.90;;;;;;5072729;28;20048;-75
2021/10/09 08:42:33;;;;;;;37.10;27.50;;;14.90;74.90;;;;;;5072852;28;20090;-75
2021/10/09 08:44:59;;;;;;;35.90;26.58;;;15.00;75.60;;;;;;5054527;28;20035;-75
2021/10/09 08:47:25;;;;;;;37.30;26.35;;;15.00;74.60;;;;;;5054960;28;20025;-74
2021/10/09 08:49:51;;;;;;;35.28;27.13;;;15.00;75.00;;;;;;5054883;28;20074;-75
2021/10/09 08:52:26;;;;;;;35.70;26.38;;;15.10;74.10;;;;;;5055399;28;20119;-75
2021/10/09 08:55:16;;;;;;;34.75;26.13;;;15.10;75.20;;;;;;5056791;28;20032;-74
2021/10/09 08:57:42;;;;;;;36.20;26.02;;;15.10;73.90;;;;;;5073577;28;20028;-74
2021/10/09 09:00:11;;;;;;;31.70;22.70;;;15.10;74.60;;;;;;5070794;28;20038;-74
2021/10/09 09:02:41;;;;;;;40.40;28.65;;;15.10;75.90;;;;;;5072116;28;20048;-74
2021/10/09 09:26:04;;;;;;;35.33;27.70;;;16.00;75.00;;;;;;5037955;28;20124;-75
2021/10/09 09:41:18;;;;;;;37.65;26.55;;;15.70;74.50;;;;;;5075929;28;20423;-76
2021/10/09 09:43:44;;;;;;;40.40;29.60;;;15.60;71.70;;;;;;5058125;28;20115;-75
2021/10/09 09:46:15;;;;;;;40.65;28.30;;;15.60;71.60;;;;;;5057806;28;20116;-75
2021/10/09 09:48:42;;;;;;;30.58;21.63;;;15.60;71.90;;;;;;5077675;28;20028;-74
2021/10/09 09:51:14;;;;;;;38.78;27.23;;;15.70;77.20;;;;;;5083340;28;20047;-76
2021/10/09 09:53:42;;;;;;;30.00;24.40;;;15.60;71.80;;;;;;5062790;28;20035;-74
2021/10/09 09:56:09;;;;;;;28.35;18.30;;;15.60;71.70;;;;;;5075569;28;20024;-74
2021/10/09 09:58:43;;;;;;;33.80;25.52;;;15.70;78.90;;;;;;5075770;28;20031;-75
2021/10/09 10:01:12;;;;;;;23.98;19.15;;;15.80;74.10;;;;;;5057498;28;20146;-74
2021/10/09 10:03:45;;;;;;;39.80;26.35;;;16.00;79.00;;;;;;5057463;28;20457;-75
2021/10/09 10:06:11;;;;;;;33.88;24.27;;;16.30;71.20;;;;;;5057087;28;20024;-75
2021/10/09 10:08:41;;;;;;;33.53;23.67;;;16.40;68.60;;;;;;5075224;28;20151;-74
2021/10/09 10:11:08;;;;;;;30.20;22.75;;;16.40;68.50;;;;;;5057312;28;20165;-75
2021/10/09 10:13:35;;;;;;;32.97;24.45;;;16.50;76.10;;;;;;5075425;28;20024;-75
2021/10/09 10:16:11;;;;;;;32.25;24.38;;;16.70;72.20;;;;;;5075162;28;20028;-74
2021/10/09 10:18:46;;;;;;;29.88;20.67;;;16.80;75.50;;;;;;5057266;28;20385;-75
2021/10/09 10:21:37;;;;;;;34.58;24.65;;;16.90;75.20;;;;;;5057291;28;20354;-75
2021/10/09 10:24:13;;;;;;;33.38;24.48;;;17.10;71.20;;;;;;5057187;28;20107;-75
2021/10/09 10:26:39;;;;;;;37.65;24.50;;;17.30;68.00;;;;;;5075429;28;20025;-75
2021/10/09 10:29:04;;;;;;;35.45;23.30;;;17.50;66.90;;;;;;5057362;28;20402;-75
2021/10/09 10:31:33;;;;;;;35.22;23.63;;;17.60;64.50;;;;;;5057300;28;20020;-75
2021/10/09 10:34:21;;;;;;;27.63;19.63;;;17.60;66.70;;;;;;5057151;28;20017;-75
2021/10/09 10:36:48;;;;;;;29.10;19.58;;;17.70;67.50;;;;;;5075006;28;20120;-75
2021/10/09 10:39:19;;;;;;;29.85;22.73;;;17.80;79.00;;;;;;5056857;28;20418;-75
2021/10/09 10:44:43;;;;;;;33.33;24.13;;;18.20;66.00;;;;;;5074894;28;20040;-75
2021/10/09 10:47:37;;;;;;;30.25;23.95;;;18.20;64.90;;;;;;5062126;28;20424;-75
2021/10/09 10:50:09;;;;;;;33.05;23.98;;;18.30;63.40;;;;;;5074900;28;20032;-75
2021/10/09 10:53:04;;;;;;;38.35;25.38;;;18.30;63.60;;;;;;5057132;28;20162;-74
2021/10/09 10:56:03;;;;;;;34.25;25.23;;;18.20;62.00;;;;;;5057448;28;20060;-75
2021/10/09 10:58:28;;;;;;;33.50;25.58;;;18.20;62.50;;;;;;5068133;28;20067;-74
2021/10/09 11:01:16;;;;;;;23.05;17.48;;;18.20;63.50;;;;;;5075784;28;20033;-75
2021/10/09 11:03:56;;;;;;;20.45;14.48;;;18.30;71.50;;;;;;5063400;28;20029;-75
2021/10/09 11:06:23;;;;;;;30.97;22.77;;;18.40;77.40;;;;;;5096752;28;20023;-74
2021/10/09 11:08:50;;;;;;;31.00;22.10;;;18.50;72.10;;;;;;5093666;28;20024;-75
2021/10/09 11:11:17;;;;;;;26.75;20.13;;;18.70;64.50;;;;;;5082823;28;20020;-75
2021/10/09 11:13:48;;;;;;;22.85;16.83;;;18.90;67.40;;;;;;5074871;28;20021;-75
2021/10/09 11:16:13;;;;;;;28.35;20.45;;;18.90;72.80;;;;;;5056184;28;20548;-75
2021/10/09 11:18:53;;;;;;;26.50;17.15;;;19.10;68.80;;;;;;5056391;28;20103;-75
2021/10/09 11:21:22;;;;;;;31.95;22.92;;;19.30;70.10;;;;;;5074579;28;20090;-76
2021/10/09 11:23:55;;;;;;;32.97;21.95;;;19.50;62.20;;;;;;5056006;28;20078;-75
2021/10/09 11:26:22;;;;;;;22.95;17.00;;;19.70;60.40;;;;;;5056183;28;20048;-75
2021/10/09 11:28:59;;;;;;;23.33;17.50;;;19.90;71.60;;;;;;5074231;28;20495;-75
2021/10/09 11:31:26;;;;;;;29.65;21.30;;;20.20;72.00;;;;;;5074441;28;20028;-75
2021/10/09 11:33:56;;;;;;;28.27;20.65;;;20.30;60.70;;;;;;5058390;28;20024;-76
2021/10/09 11:36:24;;;;;;;25.20;17.70;;;20.40;67.70;;;;;;5066973;28;20052;-76
2021/10/09 11:38:59;;;;;;;29.05;22.25;;;20.40;63.60;;;;;;5062095;28;20066;-74
2021/10/09 11:41:25;;;;;;;27.27;19.58;;;20.50;63.30;;;;;;5060922;28;20017;-75
2021/10/09 11:44:07;;;;;;;31.42;21.13;;;20.60;62.90;;;;;;5059641;28;20024;-75
2021/10/09 11:55:33;;;;;;;22.15;16.73;;;20.50;64.60;;;;;;5079236;28;20106;-75
2021/10/09 11:58:04;;;;;;;31.15;21.13;;;20.50;68.80;;;;;;5055358;28;20102;-75
2021/10/09 12:00:30;;;;;;;27.27;18.20;;;20.60;68.70;;;;;;5073261;28;20020;-75
2021/10/09 12:03:35;;;;;;;29.30;22.65;;;20.70;60.60;;;;;;5056740;28;20099;-76
2021/10/09 12:06:08;;;;;;;25.02;18.75;;;20.90;56.90;;;;;;5053665;28;20029;-75
2021/10/09 12:08:41;;;;;;;30.23;23.50;;;20.90;61.60;;;;;;5072755;28;20020;-77
2021/10/09 12:11:12;;;;;;;21.48;16.77;;;21.00;55.20;;;;;;5073553;28;20032;-76
2021/10/09 12:13:57;;;;;;;30.88;21.65;;;21.10;64.70;;;;;;5073454;28;20020;-76
2021/10/09 12:16:28;;;;;;;24.08;17.50;;;21.20;62.90;;;;;;5054915;28;20147;-77
2021/10/09 12:18:56;;;;;;;29.65;22.17;;;21.20;59.40;;;;;;5055961;28;20021;-75
2021/10/09 12:21:44;;;;;;;22.77;16.65;;;21.20;54.60;;;;;;5073526;28;20028;-75
2021/10/09 12:24:13;;;;;;;35.65;22.70;;;21.30;67.10;;;;;;5055847;28;20036;-76
2021/10/09 12:26:38;;;;;;;23.63;16.80;;;21.40;55.70;;;;;;5055326;28;20111;-76
2021/10/09 12:29:05;;;;;;;31.25;21.48;;;21.50;75.00;;;;;;5055557;28;20146;-76
2021/10/09 12:31:33;;;;;;;28.50;20.80;;;21.40;55.70;;;;;;5055181;28;20017;-74
2021/10/09 12:33:58;;;;;;;22.67;18.25;;;21.40;57.60;;;;;;5073434;28;20086;-75
2021/10/09 12:39:20;;;;;;;30.38;21.35;;;21.80;74.80;;;;;;5073063;28;20456;-76
2021/10/09 12:41:45;;;;;;;29.27;21.98;;;21.70;54.30;;;;;;5045130;28;20032;-76
2021/10/09 12:44:11;;;;;;;32.47;22.00;;;21.70;55.50;;;;;;5073103;28;20038;-76
2021/10/09 12:46:36;;;;;;;26.10;19.30;;;21.70;54.90;;;;;;5073057;28;20100;-77
2021/10/09 12:49:02;;;;;;;32.08;22.33;;;21.70;54.20;;;;;;5073495;28;20116;-77
2021/10/09 12:51:28;;;;;;;20.98;14.23;;;21.60;51.50;;;;;;5057417;28;20025;-75
2021/10/09 12:53:56;;;;;;;30.85;22.73;;;21.50;58.30;;;;;;5066057;28;20416;-76
2021/10/09 12:56:21;;;;;;;26.38;17.98;;;21.50;52.70;;;;;;5095177;28;20025;-76
2021/10/09 12:58:47;;;;;;;29.80;21.88;;;21.40;57.70;;;;;;5087503;28;20046;-75
2021/10/09 13:01:13;;;;;;;30.33;19.17;;;21.60;54.10;;;;;;5057399;28;20142;-76
2021/10/09 13:03:38;;;;;;;31.95;21.48;;;21.80;53.30;;;;;;5054675;28;20085;-77
2021/10/09 13:06:07;;;;;;;25.27;15.10;;;21.90;53.70;;;;;;5054980;28;20035;-76
2021/10/09 13:08:32;;;;;;;26.30;19.33;;;21.90;60.50;;;;;;5056275;28;20036;-76
2021/10/09 13:10:59;;;;;;;16.88;11.75;;;22.10;55.60;;;;;;5079545;28;20016;-76
2021/10/09 13:13:25;;;;;;;25.88;18.50;;;22.30;68.50;;;;;;5061401;28;20457;-75
2021/10/09 13:15:50;;;;;;;29.90;21.63;;;22.30;57.10;;;;;;5061427;28;20029;-75
2021/10/09 13:18:16;;;;;;;15.18;11.70;;;22.40;53.90;;;;;;5079329;28;20128;-75
2021/10/09 13:20:42;;;;;;;17.58;11.75;;;22.40;71.40;;;;;;5079540;28;20024;-76
2021/10/09 13:23:07;;;;;;;32.42;22.02;;;22.50;70.50;;;;;;5061153;28;20035;-76
2021/10/09 13:25:33;;;;;;;27.02;19.90;;;22.50;55.90;;;;;;5079199;28;20042;-77
2021/10/09 13:27:59;;;;;;;22.95;16.63;;;22.60;54.80;;;;;;5079300;28;20033;-76
2021/10/09 13:30:25;;;;;;;26.45;19.17;;;22.60;65.30;;;;;;5063545;28;20028;-77
2021/10/09 13:32:51;;;;;;;19.20;11.63;;;22.70;56.00;;;;;;5061322;28;20032;-76
2021/10/09 13:35:17;;;;;;;22.55;16.30;;;22.80;74.70;;;;;;5079134;28;20024;-76
2021/10/09 13:37:57;;;;;;;18.35;11.82;;;22.80;72.40;;;;;;5061585;28;20026;-77
2021/10/09 13:40:23;;;;;;;15.15;10.73;;;22.80;79.10;;;;;;5079008;28;20025;-75
2021/10/09 13:42:49;;;;;;;14.52;11.80;;;22.80;79.90;;;;;;5061674;28;20032;-77
2021/10/09 13:45:15;;;;;;;18.25;13.23;;;23.00;77.40;;;;;;5079593;28;20033;-76
2021/10/09 13:47:41;;;;;;;28.05;20.45;;;23.10;79.90;;;;;;5061750;28;20027;-76
2021/10/09 13:50:07;;;;;;;23.77;16.23;;;23.10;60.00;;;;;;5080248;28;20474;-77
2021/10/09 13:52:33;;;;;;;25.10;17.10;;;23.00;58.40;;;;;;5064259;28;20408;-76
2021/10/09 13:54:59;;;;;;;16.40;12.10;;;22.80;54.20;;;;;;5077371;28;20034;-76
2021/10/09 13:57:24;;;;;;;15.23;11.13;;;22.90;76.10;;;;;;5081059;28;20040;-76
2021/10/09 13:59:50;;;;;;;15.90;11.60;;;23.00;72.50;;;;;;5060810;28;20017;-80
2021/10/09 14:02:16;;;;;;;15.20;11.52;;;23.10;71.80;;;;;;5060894;28;20028;-80
2021/10/09 14:04:41;;;;;;;16.02;11.35;;;22.80;72.90;;;;;;5061428;28;20056;-80
2021/10/09 14:07:08;;;;;;;18.38;11.77;;;22.80;72.40;;;;;;5062082;28;20021;-80
2021/10/09 14:09:34;;;;;;;16.95;11.15;;;22.70;74.40;;;;;;5079709;28;20043;-80
2021/10/09 14:12:00;;;;;;;19.58;11.25;;;22.60;71.30;;;;;;5080904;28;20020;-79
2021/10/09 14:14:28;;;;;;;16.77;11.40;;;22.30;75.70;;;;;;5086717;28;20020;-79
2021/10/09 14:16:55;;;;;;;14.68;10.35;;;22.30;79.10;;;;;;5084931;28;20025;-80
2021/10/09 14:19:21;;;;;;;21.17;12.60;;;22.20;76.10;;;;;;5061162;28;20047;-79
2021/10/09 14:21:47;;;;;;;15.48;11.35;;;22.20;80.80;;;;;;5057453;28;20027;-80
2021/10/09 14:24:15;;;;;;;17.60;13.07;;;22.30;79.90;;;;;;5058190;28;20016;-80
2021/10/09 14:26:41;;;;;;;21.08;11.35;;;22.40;78.40;;;;;;5058347;28;20031;-80
2021/10/09 14:29:07;;;;;;;16.67;11.80;;;;;;;;;;5058405;28;20461;-80
2021/10/09 14:31:33;;;;;;;15.48;10.13;;;23.70;96.70;;;;;;5057688;28;20036;-80
2021/10/09 14:33:58;;;;;;;13.93;10.63;;;22.60;91.10;;;;;;5054557;28;20028;-80
2021/10/09 14:36:24;;;;;;;17.63;11.40;;;22.50;84.90;;;;;;5075460;28;20063;-79
2021/10/09 14:38:50;;;;;;;17.38;10.60;;;22.30;85.20;;;;;;5057962;28;20484;-80
2021/10/09 14:41:15;;;;;;;15.70;11.80;;;22.10;86.20;;;;;;5062083;28;20024;-79
2021/10/09 14:43:41;;;;;;;15.43;10.48;;;21.80;81.00;;;;;;5092145;28;20034;-78
2021/10/09 14:46:29;;;;;;;20.35;14.68;;;21.70;81.50;;;;;;5080245;28;20033;-80
2021/10/09 14:48:54;;;;;;;16.33;10.85;;;21.70;76.60;;;;;;5091852;28;20033;-80
2021/10/09 14:51:25;;;;;;;15.50;11.52;;;21.70;80.00;;;;;;5057470;28;20465;-80
2021/10/09 15:02:39;;;;;;;14.43;11.27;;;21.40;77.70;;;;;;5051176;28;20056;-83
2021/10/09 15:18:43;;;;;;;24.52;17.27;;;21.00;80.10;;;;;;5074472;28;20028;-80